Time;durP1;ratioP1;P1;durP2;ratioP2;P2;SDS_P1;SDS_P2;PMS_P1;PMS_P2;Temp;Humidity;BMP_temperature;BMP_pressure;BME280_temperature;BME280_humidity;BME280_pressure;Samples;Min_cycle;Max_cycle;Signal;HPM_P1;HPM_P2
2024/02/22 00:05:58;;;;;;;5.05;3.00;;;;;;;7.00;63.53;92310.94;2064842;69;20548;-73
2024/02/22 00:08:24;;;;;;;5.32;3.20;;;;;;;7.02;63.26;92290.75;2064961;69;20196;-74
2024/02/22 00:10:50;;;;;;;7.35;3.38;;;;;;;6.76;64.63;92289.72;2064924;69;20209;-74
2024/02/22 00:13:16;;;;;;;6.93;3.30;;;;;;;7.04;63.67;92280.41;2064505;69;20485;-75
2024/02/22 00:15:42;;;;;;;4.97;2.83;;;;;;;7.10;63.34;92280.09;2064903;69;20662;-75
2024/02/22 00:18:07;;;;;;;6.53;2.75;;;;;;;7.26;62.16;92274.84;2065337;69;20192;-75
2024/02/22 00:20:33;;;;;;;5.63;3.17;;;;;;;6.87;64.16;92275.06;2065370;69;20152;-75
2024/02/22 00:23:00;;;;;;;4.88;2.92;;;;;;;6.60;65.07;92272.56;2065424;69;20676;-76
2024/02/22 00:25:26;;;;;;;7.55;3.17;;;;;;;6.76;64.91;92265.25;2065471;69;20183;-75
2024/02/22 00:27:51;;;;;;;4.13;2.70;;;;;;;6.92;64.20;92270.47;2064797;69;20513;-74
2024/02/22 00:34:05;;;;;;;5.38;2.75;;;;;;;7.05;63.94;92261.56;2065216;69;20128;-74
2024/02/22 00:36:40;;;;;;;4.97;2.47;;;;;;;6.59;65.42;92252.25;2065432;69;20145;-74
2024/02/22 00:39:11;;;;;;;4.53;2.70;;;;;;;6.95;64.02;92244.84;2065507;69;20216;-75
2024/02/22 00:41:37;;;;;;;4.30;2.80;;;;;;;7.09;64.06;92247.84;2064559;69;20144;-75
2024/02/22 00:44:07;;;;;;;4.93;2.63;;;;;;;7.11;64.33;92231.91;2064669;69;20151;-75
2024/02/22 00:46:34;;;;;;;5.50;2.28;;;;;;;7.17;63.85;92219.66;2065312;69;20157;-76
2024/02/22 00:49:02;;;;;;;5.80;3.03;;;;;;;6.85;65.36;92218.97;2064703;69;20157;-75
2024/02/22 00:51:27;;;;;;;7.85;2.70;;;;;;;6.91;64.99;92229.84;2065303;69;20604;-75
2024/02/22 00:53:53;;;;;;;6.07;2.60;;;;;;;7.12;64.46;92224.25;2065313;69;20149;-76
2024/02/22 00:56:19;;;;;;;8.57;3.00;;;;;;;6.90;65.44;92214.38;2064744;69;20213;-76
2024/02/22 00:58:44;;;;;;;5.45;2.50;;;;;;;6.46;66.45;92213.63;2065334;69;20176;-77
2024/02/22 01:01:10;;;;;;;5.97;2.70;;;;;;;6.90;64.98;92201.13;2064759;69;20148;-74
2024/02/22 01:03:36;;;;;;;5.15;2.65;;;;;;;7.04;64.26;92190.84;2064630;69;20152;-77
2024/02/22 01:06:01;;;;;;;5.35;2.78;;;;;;;7.14;64.39;92188.72;2065194;69;20162;-75
2024/02/22 01:08:27;;;;;;;4.75;2.67;;;;;;;6.99;63.68;92188.41;2065012;69;20165;-75
2024/02/22 01:10:52;;;;;;;4.93;2.67;;;;;;;7.02;64.34;92187.94;2065083;69;20163;-76
2024/02/22 01:13:18;;;;;;;5.50;2.63;;;;;;;7.13;64.15;92183.72;2064711;69;20490;-76
2024/02/22 01:15:44;;;;;;;7.75;2.70;;;;;;;6.98;64.07;92172.94;2065380;69;20149;-75
2024/02/22 01:18:09;;;;;;;6.22;2.53;;;;;;;7.16;63.75;92176.19;2064906;69;20152;-76
2024/02/22 01:20:35;;;;;;;5.40;3.20;;;;;;;6.87;64.63;92175.09;2065346;69;20160;-78
2024/02/22 01:23:03;;;;;;;7.22;3.30;;;;;;;7.04;64.16;92165.66;2065355;69;20148;-77
2024/02/22 01:25:28;;;;;;;4.90;2.60;;;;;;;7.23;63.81;92161.97;2065206;69;20600;-75
2024/02/22 01:27:54;;;;;;;6.70;3.08;;;;;;;6.97;64.90;92152.63;2065246;69;20662;-75
2024/02/22 01:30:20;;;;;;;6.30;2.92;;;;;;;7.14;64.41;92155.13;2065175;69;20269;-76
2024/02/22 01:32:45;;;;;;;3.70;2.17;;;;;;;7.33;63.28;92147.88;2065150;69;20164;-76
2024/02/22 01:35:12;;;;;;;3.20;2.13;;;;;;;7.29;60.32;92153.97;2064771;69;20183;-76
2024/02/22 01:37:37;;;;;;;5.97;2.38;;;;;;;7.32;60.64;92149.22;2065194;69;20153;-75
2024/02/22 01:40:04;;;;;;;3.90;2.30;;;;;;;7.18;62.91;92137.84;2064634;69;20151;-74
2024/02/22 01:42:30;;;;;;;5.93;2.63;;;;;;;7.45;62.05;92147.94;2064772;69;20610;-75
2024/02/22 01:44:56;;;;;;;4.40;2.38;;;;;;;7.44;62.69;92132.47;2065142;69;20685;-75
2024/02/22 01:47:21;;;;;;;6.63;2.80;;;;;;;7.47;63.17;92132.00;2065269;69;20156;-74
2024/02/22 01:49:48;;;;;;;4.55;2.53;;;;;;;7.35;62.72;92125.63;2065029;69;20148;-75
2024/02/22 01:52:14;;;;;;;4.32;2.67;;;;;;;7.58;61.17;92116.56;2065129;69;20152;-75
2024/02/22 01:58:31;;;;;;;5.47;2.35;;;;;;;7.13;62.90;92122.16;2065133;69;20532;-75
2024/02/22 02:01:02;;;;;;;6.57;2.33;;;;;;;7.37;61.73;92112.47;2064636;69;20141;-75
2024/02/22 02:03:29;;;;;;;4.80;2.15;;;;;;;7.54;61.67;92111.44;2064907;69;20141;-75
2024/02/22 02:05:55;;;;;;;5.32;2.25;;;;;;;7.26;63.72;92107.59;2065156;69;20541;-74
2024/02/22 02:08:23;;;;;;;6.65;2.42;;;;;;;7.50;62.96;92107.66;2065168;69;20701;-74
2024/02/22 02:10:49;;;;;;;3.92;2.40;;;;;;;7.61;62.34;92098.53;2065074;69;20180;-75
2024/02/22 02:13:14;;;;;;;6.15;2.15;;;;;;;7.70;61.72;92094.16;2065146;69;20173;-75
2024/02/22 02:15:41;;;;;;;2.75;1.83;;;;;;;7.68;61.34;92091.25;2064562;69;20136;-73
2024/02/22 02:18:06;;;;;;;3.42;2.00;;;;;;;7.71;60.94;92095.63;2065028;69;20137;-76
2024/02/22 02:21:21;;;;;;;5.20;2.13;;;;;;;7.53;61.51;92095.25;2065269;69;20550;-75
2024/02/22 02:24:05;;;;;;;4.93;1.83;;;;;;;7.58;61.36;92092.06;2063215;69;20173;-75
2024/02/22 02:26:31;;;;;;;5.20;2.33;;;;;;;7.65;61.32;92081.97;2064655;69;20619;-76
2024/02/22 02:28:57;;;;;;;5.57;2.17;;;;;;;7.26;63.07;92081.66;2065225;69;20133;-76
2024/02/22 02:31:23;;;;;;;3.80;2.22;;;;;;;7.45;62.23;92059.06;2065127;69;20260;-75
2024/02/22 02:33:48;;;;;;;3.88;2.00;;;;;;;7.62;62.10;92067.13;2065258;69;20141;-76
2024/02/22 02:36:14;;;;;;;3.65;1.80;;;;;;;7.74;61.61;92058.69;2065257;69;20226;-74
2024/02/22 02:38:40;;;;;;;2.55;1.55;;;;;;;7.77;61.12;92051.16;2064829;69;20236;-75
2024/02/22 02:41:05;;;;;;;4.63;2.20;;;;;;;7.22;62.89;92040.13;2064907;69;20164;-75
2024/02/22 02:43:31;;;;;;;4.15;2.20;;;;;;;7.45;62.84;92033.84;2064541;69;20589;-75
2024/02/22 02:45:56;;;;;;;2.45;1.85;;;;;;;7.57;62.37;92031.78;2064964;69;20239;-75
2024/02/22 02:48:22;;;;;;;3.38;2.00;;;;;;;7.68;61.55;92018.41;2064977;69;20248;-74
2024/02/22 02:50:48;;;;;;;3.65;2.00;;;;;;;7.66;62.25;92007.09;2064474;69;20227;-75
2024/02/22 02:53:14;;;;;;;3.40;1.88;;;;;;;7.59;61.97;91994.75;2065178;69;20181;-74
2024/02/22 02:55:40;;;;;;;4.70;1.90;;;;;;;7.75;60.71;91992.94;2065049;69;20360;-74
2024/02/22 02:58:06;;;;;;;2.15;1.55;;;;;;;7.83;60.87;91992.69;2064807;69;20152;-75
2024/02/22 03:00:31;;;;;;;3.97;1.90;;;;;;;7.73;61.13;91983.69;2064762;69;20153;-75
2024/02/22 03:02:58;;;;;;;2.78;1.75;;;;;;;7.57;62.13;91984.19;2064777;69;20145;-75
2024/02/22 03:05:26;;;;;;;2.95;1.83;;;;;;;7.62;62.42;91979.56;2064914;69;20605;-76
2024/02/22 03:07:53;;;;;;;3.95;1.95;;;;;;;7.54;62.50;91973.47;2064930;69;20165;-75
2024/02/22 03:10:21;;;;;;;3.45;1.92;;;;;;;7.07;63.80;91985.34;2065015;69;20144;-73
2024/02/22 03:12:47;;;;;;;4.18;2.17;;;;;;;7.34;63.03;91981.38;2064927;69;20260;-74
2024/02/22 03:15:16;;;;;;;3.05;1.88;;;;;;;7.43;63.03;91988.94;2064947;69;20516;-76
2024/02/22 03:17:42;;;;;;;3.20;1.83;;;;;;;7.47;62.28;91980.78;2064930;69;20616;-73
2024/02/22 03:20:10;;;;;;;5.07;1.80;;;;;;;7.58;61.29;91976.50;2064940;69;20211;-75
2024/02/22 03:22:37;;;;;;;3.10;2.00;;;;;;;7.14;62.19;91964.78;2064480;69;20571;-74
2024/02/22 03:25:03;;;;;;;3.33;1.98;;;;;;;7.05;62.81;91956.50;2065077;69;20149;-75
2024/02/22 03:27:28;;;;;;;3.40;1.83;;;;;;;7.47;61.88;91949.97;2064824;69;20601;-74
2024/02/22 03:29:54;;;;;;;3.15;1.90;;;;;;;7.37;62.56;91938.16;2064250;69;20680;-74
2024/02/22 03:32:19;;;;;;;4.03;1.70;;;;;;;7.48;61.90;91923.41;2064208;69;20150;-75
2024/02/22 03:38:33;;;;;;;3.33;1.80;;;;;;;7.70;60.46;91910.00;2065000;69;20210;-75
2024/02/22 03:40:59;;;;;;;3.20;1.90;;;;;;;7.69;60.37;91894.50;2065027;69;20220;-75
2024/02/22 03:47:12;;;;;;;5.05;2.50;;;;;;;7.65;61.58;91888.69;2063139;69;20615;-74
2024/02/22 03:49:38;;;;;;;3.58;1.98;;;;;;;7.78;60.68;91898.53;2064224;69;20130;-74
2024/02/22 03:52:06;;;;;;;3.22;1.60;;;;;;;7.61;61.97;91903.19;2064820;69;20543;-74
2024/02/22 03:54:34;;;;;;;6.00;2.00;;;;;;;7.01;63.93;91909.44;2065159;69;20165;-75
2024/02/22 03:57:00;;;;;;;3.13;2.22;;;;;;;6.90;63.96;91906.59;2065357;69;20232;-74
2024/02/22 03:59:25;;;;;;;5.22;2.75;;;;;;;7.10;64.08;91905.78;2065278;69;20153;-74
2024/02/22 04:01:52;;;;;;;4.57;2.60;;;;;;;7.45;63.20;91905.03;2065551;69;20137;-74
2024/02/22 04:04:18;;;;;;;5.18;2.90;;;;;;;7.30;62.71;91895.06;2065299;69;20188;-73
2024/02/22 04:06:44;;;;;;;3.72;2.50;;;;;;;7.48;62.33;91898.22;2065201;69;20569;-74
2024/02/22 04:09:10;;;;;;;4.07;2.30;;;;;;;7.49;62.61;91890.53;2065170;69;20149;-75
2024/02/22 04:11:36;;;;;;;4.07;2.20;;;;;;;7.24;63.82;91889.13;2065052;69;20145;-74
2024/02/22 04:14:01;;;;;;;6.80;2.97;;;;;;;7.07;64.22;91883.88;2065526;69;20168;-76
2024/02/22 04:16:27;;;;;;;8.18;2.67;;;;;;;7.36;63.35;91875.09;2065123;69;20220;-75
2024/02/22 04:18:53;;;;;;;6.55;2.90;;;;;;;7.42;62.70;91872.63;2064911;69;20520;-75
2024/02/22 04:21:18;;;;;;;3.38;2.28;;;;;;;7.42;62.79;91869.84;2065196;69;20144;-74
2024/02/22 04:23:45;;;;;;;4.85;2.58;;;;;;;7.29;62.37;91851.63;2065410;69;20658;-75
2024/02/22 04:26:10;;;;;;;6.05;2.78;;;;;;;7.46;62.51;91846.94;2064998;69;20149;-74
2024/02/22 04:28:37;;;;;;;5.38;2.55;;;;;;;7.49;62.95;91842.94;2065406;69;20167;-75
2024/02/22 04:31:04;;;;;;;5.68;2.70;;;;;;;7.36;63.74;91844.28;2065158;69;20294;-76
2024/02/22 04:33:30;;;;;;;4.13;2.40;;;;;;;7.39;64.05;91843.06;2065010;69;20240;-75
2024/02/22 04:35:56;;;;;;;6.30;2.42;;;;;;;7.02;64.59;91851.38;2065223;69;20161;-74
2024/02/22 04:38:22;;;;;;;4.63;2.60;;;;;;;6.60;66.71;91856.59;2064670;69;20152;-74
2024/02/22 04:40:48;;;;;;;8.65;2.78;;;;;;;7.03;65.13;91861.25;2065167;69;20188;-76
2024/02/22 04:43:14;;;;;;;4.78;2.38;;;;;;;7.26;64.36;91872.41;2064635;69;20605;-76
2024/02/22 04:45:39;;;;;;;4.30;2.30;;;;;;;7.35;64.54;91851.22;2065131;69;20177;-76
2024/02/22 04:48:06;;;;;;;6.68;2.88;;;;;;;7.35;63.70;91857.56;2065247;69;20184;-75
2024/02/22 04:50:34;;;;;;;27.75;10.90;;;;;;;7.07;64.01;91839.09;2065283;69;20144;-75
2024/02/22 04:53:00;;;;;;;14.18;6.30;;;;;;;7.26;63.52;91835.31;2065164;69;20148;-75
2024/02/22 04:55:27;;;;;;;6.00;3.00;;;;;;;6.68;65.86;91833.97;2064649;69;20137;-75
2024/02/22 04:57:54;;;;;;;6.13;3.47;;;;;;;6.82;65.59;91820.84;2065091;69;20156;-74
2024/02/22 05:00:20;;;;;;;8.63;4.00;;;;;;;7.12;64.93;91821.19;2064809;69;20548;-75
2024/02/22 05:02:45;;;;;;;5.57;3.28;;;;;;;7.12;63.81;91801.63;2065092;69;20203;-75
2024/02/22 05:05:11;;;;;;;7.20;3.25;;;;;;;7.17;64.34;91794.91;2065357;69;20141;-76
2024/02/22 05:07:39;;;;;;;8.13;2.97;;;;;;;7.28;64.07;91810.94;2065231;69;20684;-75
2024/02/22 05:10:06;;;;;;;6.88;3.65;;;;;;;7.30;64.25;91824.34;2065238;69;20267;-74
2024/02/22 05:12:33;;;;;;;7.88;4.82;;;;;;;7.29;64.17;91812.41;2065199;69;20153;-74
2024/02/22 05:14:59;;;;;;;9.45;4.55;;;;;;;7.27;64.65;91808.75;2065198;69;20152;-76
2024/02/22 05:17:25;;;;;;;10.07;5.13;;;;;;;7.28;64.87;91808.13;2065182;69;20615;-78
2024/02/22 05:23:51;;;;;;;13.82;6.22;;;;;;;7.18;64.83;91804.03;2065248;69;20149;-74
2024/02/22 05:26:16;;;;;;;15.95;7.55;;;;;;;7.24;64.99;91790.38;2065166;69;20165;-77
2024/02/22 05:28:42;;;;;;;20.65;10.60;;;;;;;7.13;64.66;91783.47;2065144;69;20145;-78
2024/02/22 05:34:55;;;;;;;17.45;8.40;;;;;;;6.46;67.52;91787.88;2065111;69;20625;-73
2024/02/22 05:37:21;;;;;;;14.75;7.00;;;;;;;6.74;67.21;91786.06;2065160;69;20214;-74
2024/02/22 05:39:46;;;;;;;14.55;7.55;;;;;;;7.01;66.16;91783.50;2065167;69;20157;-74
2024/02/22 05:42:12;;;;;;;15.13;7.97;;;;;;;7.11;65.41;91770.09;2064951;69;20219;-73
2024/02/22 05:44:37;;;;;;;13.57;6.88;;;;;;;6.85;66.11;91783.25;2065173;69;20155;-77
2024/02/22 05:47:03;;;;;;;10.52;6.07;;;;;;;6.48;67.55;91771.22;2065106;69;20149;-75
2024/02/22 05:49:30;;;;;;;11.25;5.97;;;;;;;6.92;66.56;91778.78;2064668;69;20662;-73
2024/02/22 05:51:55;;;;;;;15.13;5.50;;;;;;;6.82;65.78;91761.38;2064680;69;20242;-76
2024/02/22 05:54:22;;;;;;;15.32;7.97;;;;;;;6.78;66.20;91772.31;2065169;69;20161;-77
2024/02/22 05:56:49;;;;;;;10.55;6.25;;;;;;;6.59;67.39;91773.28;2065096;69;20137;-76
2024/02/22 05:59:16;;;;;;;13.50;6.25;;;;;;;6.76;66.97;91777.78;2065048;69;20253;-75
2024/02/22 06:01:41;;;;;;;14.15;6.90;;;;;;;6.90;66.36;91775.84;2064884;69;20177;-75
2024/02/22 06:04:07;;;;;;;13.35;6.60;;;;;;;6.88;66.79;91761.75;2064861;69;20173;-75
2024/02/22 06:06:33;;;;;;;12.07;6.75;;;;;;;6.92;66.43;91764.78;2064417;69;20160;-75
2024/02/22 06:08:59;;;;;;;11.15;6.28;;;;;;;6.91;66.58;91763.31;2065157;69;20191;-77
2024/02/22 06:11:24;;;;;;;11.55;6.45;;;;;;;6.93;65.93;91765.50;2064614;69;20240;-76
2024/02/22 06:13:50;;;;;;;13.35;7.15;;;;;;;6.97;66.55;91755.28;2064807;69;20148;-76
2024/02/22 06:20:05;;;;;;;19.27;10.32;;;;;;;7.01;65.82;91747.13;2064777;69;20513;-75
2024/02/22 06:22:32;;;;;;;19.20;10.35;;;;;;;6.92;66.18;91736.81;2065010;69;20671;-74
2024/02/22 06:24:58;;;;;;;13.63;7.90;;;;;;;7.00;66.33;91734.47;2065045;69;20144;-76
2024/02/22 06:27:24;;;;;;;14.65;7.88;;;;;;;7.05;66.09;91736.16;2065114;69;20230;-74
2024/02/22 06:29:49;;;;;;;14.15;7.05;;;;;;;7.00;66.20;91726.06;2064572;69;20586;-75
2024/02/22 06:32:15;;;;;;;10.70;5.68;;;;;;;7.09;65.99;91733.59;2064961;69;20183;-76
2024/02/22 06:34:42;;;;;;;14.60;7.93;;;;;;;6.44;67.80;91729.78;2065023;69;20149;-76
2024/02/22 06:37:08;;;;;;;18.02;8.88;;;;;;;6.44;69.20;91734.63;2065286;69;20228;-77
2024/02/22 06:39:34;;;;;;;21.60;10.18;;;;;;;6.78;68.07;91725.50;2065066;69;20145;-79
2024/02/22 06:42:01;;;;;;;17.42;9.13;;;;;;;6.84;67.33;91725.13;2064962;69;20156;-78
2024/02/22 06:44:27;;;;;;;16.90;9.57;;;;;;;6.81;68.24;91715.88;2064601;69;20240;-75
2024/02/22 06:46:53;;;;;;;13.93;7.82;;;;;;;7.03;67.21;91715.72;2065100;69;20185;-76
2024/02/22 06:49:19;;;;;;;17.58;8.38;;;;;;;6.93;67.32;91713.06;2064624;69;20509;-77
2024/02/22 06:51:45;;;;;;;22.75;8.73;;;;;;;6.73;68.25;91718.19;2064541;69;20156;-77
2024/02/22 06:54:12;;;;;;;14.88;8.65;;;;;;;7.02;67.12;91725.47;2065059;69;20145;-78
2024/02/22 06:56:38;;;;;;;14.02;7.95;;;;;;;7.09;67.35;91721.66;2064526;69;20278;-77
2024/02/22 06:59:04;;;;;;;12.38;7.22;;;;;;;7.14;66.72;91726.16;2065202;69;20172;-77
2024/02/22 07:01:32;;;;;;;14.18;7.40;;;;;;;6.87;67.39;91716.25;2064742;69;20509;-76
2024/02/22 07:03:57;;;;;;;12.10;6.68;;;;;;;7.18;66.56;91720.78;2064375;69;20137;-75
2024/02/22 07:06:23;;;;;;;14.18;7.03;;;;;;;7.25;66.50;91722.59;2064981;69;20140;-77
2024/02/22 07:08:48;;;;;;;15.05;6.15;;;;;;;7.02;66.96;91703.06;2064983;69;20135;-77
2024/02/22 07:11:14;;;;;;;10.70;6.45;;;;;;;7.19;66.53;91702.66;2065079;69;20171;-76
2024/02/22 07:13:40;;;;;;;14.32;6.65;;;;;;;7.26;66.52;91700.94;2065138;69;20144;-76
2024/02/22 07:16:07;;;;;;;12.95;6.13;;;;;;;6.90;67.63;91700.28;2065116;69;20149;-76
2024/02/22 07:18:34;;;;;;;11.43;6.25;;;;;;;7.26;66.18;91700.94;2064922;69;20195;-76
2024/02/22 07:21:00;;;;;;;9.48;5.90;;;;;;;7.31;66.38;91711.75;2065143;69;20159;-76
2024/02/22 07:23:26;;;;;;;14.27;6.28;;;;;;;7.35;66.13;91700.03;2065079;69;20231;-74
2024/02/22 07:25:52;;;;;;;13.13;7.40;;;;;;;7.51;66.14;91708.63;2064487;69;20147;-77
2024/02/22 07:28:17;;;;;;;13.98;8.20;;;;;;;7.64;65.74;91705.16;2064720;69;20145;-74
2024/02/22 07:34:31;;;;;;;15.98;8.38;;;;;;;7.78;64.61;91714.34;2065007;69;20195;-75
2024/02/22 07:36:57;;;;;;;17.08;8.05;;;;;;;7.66;65.96;91701.75;2064975;69;20224;-76
2024/02/22 07:39:23;;;;;;;19.08;9.35;;;;;;;7.76;65.50;91705.81;2065003;69;20145;-76
2024/02/22 07:41:49;;;;;;;13.30;9.20;;;;;;;8.03;64.88;91713.59;2064759;69;20243;-78
2024/02/22 07:44:14;;;;;;;11.43;7.80;;;;;;;7.91;65.15;91715.72;2064767;69;20149;-75
2024/02/22 07:46:40;;;;;;;20.15;6.97;;;;;;;8.07;64.58;91713.09;2065049;69;20564;-77
2024/02/22 07:49:06;;;;;;;12.50;7.53;;;;;;;8.22;65.12;91711.78;2064897;69;20156;-78
2024/02/22 07:51:32;;;;;;;14.23;7.40;;;;;;;8.22;64.09;91708.97;2065036;69;20153;-78
2024/02/22 07:53:59;;;;;;;26.65;14.77;;;;;;;8.23;64.61;91704.81;2064820;69;20237;-77
2024/02/22 07:56:24;;;;;;;21.85;11.98;;;;;;;8.47;64.32;91697.69;2064979;69;20137;-78
2024/02/22 07:58:53;;;;;;;16.42;9.40;;;;;;;8.63;64.42;91687.34;2064559;69;20145;-79
2024/02/22 08:01:18;;;;;;;18.15;7.47;;;;;;;8.46;64.96;91673.81;2064453;69;20256;-77
2024/02/22 08:03:44;;;;;;;23.27;12.13;;;;;;;8.06;65.33;91655.56;2064480;69;20144;-78
2024/02/22 08:06:11;;;;;;;23.67;12.75;;;;;;;8.66;64.19;91654.50;2064890;69;20586;-78
2024/02/22 08:08:38;;;;;;;24.75;13.85;;;;;;;8.66;63.85;91643.28;2064993;69;20144;-78
2024/02/22 08:11:05;;;;;;;29.33;14.23;;;;;;;8.74;62.48;91654.16;2064720;69;20231;-76
2024/02/22 08:13:31;;;;;;;31.00;14.85;;;;;;;8.88;62.37;91652.06;2064880;69;20206;-79
2024/02/22 08:16:05;;;;;;;27.45;13.18;;;;;;;8.74;62.92;91659.78;2064945;69;20153;-76
2024/02/22 08:18:33;;;;;;;22.88;10.40;;;;;;;8.35;64.62;91663.41;2064797;69;20601;-78
2024/02/22 08:20:58;;;;;;;22.42;9.82;;;;;;;9.12;63.30;91669.41;2064835;69;20153;-76
2024/02/22 08:23:24;;;;;;;17.35;9.38;;;;;;;9.57;62.54;91661.06;2065072;69;20160;-77
2024/02/22 08:25:49;;;;;;;18.08;9.10;;;;;;;9.62;61.63;91667.59;2061478;69;20199;-78
2024/02/22 08:28:15;;;;;;;19.38;10.20;;;;;;;9.72;60.88;91656.13;2064106;69;20156;-79
2024/02/22 08:30:41;;;;;;;24.05;10.95;;;;;;;9.64;60.97;91657.19;2061495;69;20203;-81
2024/02/22 08:33:06;;;;;;;18.33;9.73;;;;;;;9.41;60.88;91655.41;2064903;69;20252;-75
2024/02/22 08:35:32;;;;;;;19.50;9.85;;;;;;;9.71;61.25;91652.56;2065061;69;20159;-77
2024/02/22 08:37:58;;;;;;;18.63;9.80;;;;;;;9.70;61.48;91650.41;2065533;69;20515;-79
2024/02/22 08:40:24;;;;;;;19.92;9.13;;;;;;;9.33;62.39;91657.81;2065312;69;20156;-75
2024/02/22 08:42:51;;;;;;;20.73;8.63;;;;;;;9.54;61.46;91653.19;2065385;69;20141;-78
2024/02/22 08:45:17;;;;;;;20.40;9.70;;;;;;;9.67;60.93;91660.84;2065401;69;20501;-76
2024/02/22 08:47:44;;;;;;;22.65;9.70;;;;;;;9.77;60.94;91660.56;2065165;69;20185;-77
2024/02/22 08:50:12;;;;;;;19.15;9.25;;;;;;;9.77;60.74;91647.25;2065287;69;20235;-78
2024/02/22 08:52:41;;;;;;;16.98;8.98;;;;;;;9.65;60.56;91635.44;2065157;69;20152;-76
2024/02/22 08:55:11;;;;;;;18.92;8.70;;;;;;;9.82;60.94;91634.84;2065439;69;20157;-79
2024/02/22 08:57:37;;;;;;;18.85;8.48;;;;;;;9.78;59.45;91625.50;2065278;69;20617;-80
2024/02/22 09:00:05;;;;;;;17.13;8.30;;;;;;;9.57;60.11;91627.34;2065318;69;20156;-78
2024/02/22 09:02:32;;;;;;;15.05;8.23;;;;;;;10.13;59.09;91622.19;2065520;69;20160;-78
2024/02/22 09:04:58;;;;;;;20.77;8.07;;;;;;;10.46;58.66;91615.19;2064585;69;20145;-75
2024/02/22 09:07:24;;;;;;;15.15;6.68;;;;;;;10.23;59.24;91611.38;2065251;69;20160;-76
2024/02/22 09:13:37;;;;;;;14.20;6.22;;;;;;;10.83;58.35;91615.41;2065472;69;20128;-74
2024/02/22 09:16:03;;;;;;;19.00;6.57;;;;;;;10.95;57.65;91615.19;2065433;69;20588;-80
2024/02/22 09:18:29;;;;;;;14.90;7.18;;;;;;;11.23;57.85;91623.38;2065216;69;20178;-76
2024/02/22 09:20:54;;;;;;;13.57;6.80;;;;;;;11.44;56.84;91620.72;2065470;69;20272;-75
2024/02/22 09:23:20;;;;;;;13.27;7.60;;;;;;;10.94;56.11;91613.72;2065431;69;20154;-76
2024/02/22 09:25:46;;;;;;;10.27;6.25;;;;;;;10.87;56.27;91606.41;2064681;69;20570;-75
2024/02/22 09:28:13;;;;;;;13.73;6.88;;;;;;;11.01;55.90;91607.00;2064773;69;20597;-75
2024/02/22 09:30:38;;;;;;;9.95;6.45;;;;;;;11.48;55.77;91594.78;2065617;69;20145;-75
2024/02/22 09:33:04;;;;;;;13.30;7.03;;;;;;;12.09;54.96;91596.44;2064716;69;20168;-79
2024/02/22 09:35:30;;;;;;;11.82;7.53;;;;;;;12.62;55.61;91595.56;2065293;69;20147;-77
2024/02/22 09:37:56;;;;;;;11.80;7.35;;;;;;;13.16;53.51;91590.34;2064809;69;20168;-80
2024/02/22 09:40:22;;;;;;;10.55;4.80;;;;;;;13.30;50.79;91576.00;2065297;69;20583;-77
2024/02/22 09:42:51;;;;;;;14.20;6.80;;;;;;;13.55;50.19;91591.63;2064941;69;20582;-78
2024/02/22 09:45:16;;;;;;;14.20;6.80;;;;;;;13.25;50.25;91592.09;2065189;69;20145;-78
2024/02/22 09:47:44;;;;;;;12.98;6.80;;;;;;;13.21;50.80;91589.09;2065057;69;20149;-79
2024/02/22 09:50:10;;;;;;;12.85;6.55;;;;;;;13.51;50.55;91588.66;2065391;69;20585;-79
2024/02/22 09:52:37;;;;;;;10.82;6.65;;;;;;;13.86;50.42;91579.91;2065224;69;20156;-77
2024/02/22 09:55:04;;;;;;;10.23;5.60;;;;;;;14.03;48.34;91577.56;2065269;69;20157;-75
2024/02/22 09:57:30;;;;;;;10.25;6.90;;;;;;;14.32;48.53;91571.34;2065213;69;20186;-77
2024/02/22 09:59:57;;;;;;;7.38;4.97;;;;;;;14.79;47.11;91555.69;2065401;69;20376;-76
2024/02/22 10:02:22;;;;;;;6.45;4.03;;;;;;;15.45;44.75;91550.31;2065193;69;20148;-75
2024/02/22 10:04:59;;;;;;;9.27;5.38;;;;;;;15.50;44.84;91543.34;2065103;69;20520;-78
2024/02/22 10:07:31;;;;;;;8.57;4.60;;;;;;;15.97;44.82;91557.91;2065158;69;20184;-75
2024/02/22 10:09:56;;;;;;;6.35;4.57;;;;;;;16.27;43.37;91549.38;2065162;69;20278;-76
2024/02/22 10:12:31;;;;;;;8.73;4.38;;;;;;;15.92;43.23;91545.75;2065365;69;20157;-76
2024/02/22 10:14:56;;;;;;;14.98;4.28;;;;;;;16.77;42.98;91551.84;2064672;69;20238;-77
2024/02/22 10:17:30;;;;;;;6.97;4.20;;;;;;;17.02;41.89;91553.00;2065233;69;20145;-76
2024/02/22 10:20:06;;;;;;;6.53;4.13;;;;;;;17.44;40.46;91547.34;2065073;69;20167;-76
2024/02/22 10:22:34;;;;;;;6.43;4.00;;;;;;;17.95;40.63;91542.50;2065320;69;20175;-74
2024/02/22 10:25:07;;;;;;;7.68;4.28;;;;;;;17.94;39.58;91546.78;2065154;69;20141;-78
2024/02/22 10:27:34;;;;;;;7.03;4.70;;;;;;;17.61;39.85;91533.41;2064470;69;20161;-77
2024/02/22 10:30:00;;;;;;;5.97;4.35;;;;;;;16.98;40.84;91524.50;2064608;69;20156;-75
2024/02/22 10:32:26;;;;;;;5.38;4.13;;;;;;;17.71;40.60;91522.19;2064842;69;20184;-77
2024/02/22 10:34:53;;;;;;;5.28;3.92;;;;;;;18.33;39.74;91523.84;2064775;69;20149;-75
2024/02/22 10:37:18;;;;;;;6.53;4.18;;;;;;;19.54;38.14;91523.78;2064392;69;20524;-77
2024/02/22 10:39:49;;;;;;;5.47;4.18;;;;;;;19.92;35.74;91505.53;2064634;69;20149;-75
2024/02/22 10:42:15;;;;;;;5.07;4.00;;;;;;;19.78;36.04;91511.88;2065327;69;20536;-76
2024/02/22 10:44:42;;;;;;;5.68;3.80;;;;;;;20.62;36.82;91498.84;2065233;69;20175;-75
2024/02/22 10:47:09;;;;;;;5.70;4.10;;;;;;;21.22;34.20;91491.19;2065014;69;20624;-78
2024/02/22 10:49:36;;;;;;;6.03;3.67;;;;;;;21.30;34.98;91488.31;2065014;69;20157;-75
2024/02/22 10:52:04;;;;;;;9.80;4.30;;;;;;;20.61;33.85;91482.41;2065213;69;20669;-75
2024/02/22 10:54:33;;;;;;;6.28;4.20;;;;;;;21.58;34.29;91470.50;2065048;69;20156;-78
2024/02/22 10:57:02;;;;;;;4.85;3.40;;;;;;;21.79;32.72;91474.09;2065167;69;20145;-75
2024/02/22 10:59:30;;;;;;;6.75;4.95;;;;;;;20.07;34.15;91464.25;2064954;69;20228;-75
2024/02/22 11:01:58;;;;;;;7.30;5.45;;;;;;;20.10;34.45;91462.09;2065020;69;20168;-77
2024/02/22 11:04:25;;;;;;;4.90;3.75;;;;;;;22.52;32.81;91458.94;2065026;69;20145;-75
2024/02/22 11:06:51;;;;;;;7.18;4.50;;;;;;;22.22;32.28;91437.53;2065121;69;20589;-76
2024/02/22 11:09:18;;;;;;;9.05;6.25;;;;;;;21.36;32.32;91419.69;2064547;69;20195;-75
2024/02/22 11:11:46;;;;;;;5.57;4.50;;;;;;;22.86;32.21;91400.00;2064842;69;20141;-76
2024/02/22 11:14:15;;;;;;;6.05;5.07;;;;;;;23.99;30.81;91404.22;2064994;69;20153;-76
2024/02/22 11:16:40;;;;;;;5.07;3.90;;;;;;;25.83;30.26;91396.88;2064949;69;20149;-76
2024/02/22 11:19:12;;;;;;;4.45;3.42;;;;;;;27.23;28.03;91384.13;2064959;69;20144;-77
2024/02/22 11:21:42;;;;;;;4.55;3.15;;;;;;;27.97;26.70;91385.34;2065193;69;20611;-76
2024/02/22 11:24:19;;;;;;;4.55;3.47;;;;;;;25.37;28.48;91386.78;2065075;69;20156;-79
2024/02/22 11:26:45;;;;;;;3.80;3.05;;;;;;;28.90;26.84;91384.34;2065201;69;20222;-76
2024/02/22 11:29:11;;;;;;;3.40;3.10;;;;;;;30.93;26.27;91396.78;2065041;69;20149;-77
2024/02/22 11:31:37;;;;;;;4.10;3.30;;;;;;;25.36;28.06;91376.72;2065106;69;20140;-76
2024/02/22 11:34:05;;;;;;;3.42;3.10;;;;;;;25.71;29.58;91353.84;2064936;69;20148;-77
2024/02/22 11:36:31;;;;;;;3.65;2.80;;;;;;;26.00;26.80;91359.84;2065073;69;20218;-76
2024/02/22 11:39:06;;;;;;;3.47;2.92;;;;;;;25.98;28.18;91341.84;2064963;69;20141;-76
2024/02/22 11:41:32;;;;;;;4.95;3.20;;;;;;;23.70;28.81;91317.59;2065095;69;20141;-76
2024/02/22 11:44:07;;;;;;;4.43;2.80;;;;;;;22.51;29.91;91314.88;2064921;69;20593;-79
2024/02/22 11:46:37;;;;;;;5.38;2.83;;;;;;;22.84;29.93;91303.19;2064790;69;20172;-77
2024/02/22 11:49:08;;;;;;;3.72;3.10;;;;;;;26.06;27.55;91304.22;2064845;69;20141;-75
2024/02/22 11:51:35;;;;;;;3.72;2.70;;;;;;;22.43;30.36;91277.63;2065099;69;20157;-76
2024/02/22 11:54:00;;;;;;;3.20;2.90;;;;;;;24.12;29.28;91284.09;2064969;69;20310;-75
2024/02/22 11:56:27;;;;;;;4.45;2.65;;;;;;;23.40;30.67;91286.25;2064948;69;20696;-75
2024/02/22 11:58:56;;;;;;;3.75;2.35;;;;;;;23.61;30.16;91278.88;2064879;69;20177;-76
2024/02/22 12:01:23;;;;;;;3.65;2.70;;;;;;;23.03;29.05;91272.22;2064952;69;20145;-76
2024/02/22 12:07:37;;;;;;;3.20;2.63;;;;;;;23.06;29.74;91265.75;2064824;69;20186;-77
2024/02/22 12:13:55;;;;;;;5.45;3.13;;;;;;;20.65;32.20;91270.84;2065389;69;20214;-77
2024/02/22 12:16:21;;;;;;;4.25;3.10;;;;;;;20.43;32.96;91260.06;2064964;69;20624;-74
2024/02/22 12:18:47;;;;;;;3.58;2.67;;;;;;;19.47;33.96;91239.75;2064710;69;20145;-73
2024/02/22 12:21:13;;;;;;;2.90;2.40;;;;;;;19.81;34.19;91242.09;2065402;69;20149;-74